Time,TemperatureF,DewpointF,PressureIn,WindDirection,WindDirectionDegrees,WindSpeedMPH,WindSpeedGustMPH,Humidity,HourlyPrecipIn,Conditions,Clouds,dailyrainin,SolarRadiationWatts/m^2,SoftwareType,DateUTC
2013-04-09 00:02:00,37.0,20.0,29.66,North,9,19.0,28.0,49,-99.99,,,-99.99,0.000000,,2013-04-09 07:02:00,
2013-04-09 00:10:00,37.0,20.0,29.68,North,357,13.0,19.0,49,-99.99,,,-99.99,0.000000,,2013-04-09 07:10:00,
2013-04-09 00:52:00,37.0,20.0,29.68,North,357,13.0,19.0,49,-99.99,,,-99.99,0.000000,,2013-04-09 07:52:00,
2013-04-09 01:02:00,37.0,20.0,29.68,North,357,13.0,19.0,49,-99.99,,,-99.99,0.000000,,2013-04-09 08:02:00,
2013-04-09 01:10:00,35.0,22.0,29.69,NNE,22,18.0,24.0,59,-99.99,,,-99.99,0.000000,,2013-04-09 08:10:00,
2013-04-09 01:52:00,35.0,22.0,29.69,NNE,22,18.0,24.0,59,-99.99,,,-99.99,0.000000,,2013-04-09 08:52:00,
2013-04-09 02:02:00,35.0,22.0,29.69,NNE,22,18.0,24.0,59,-99.99,,,-99.99,0.000000,,2013-04-09 09:02:00,
2013-04-09 02:10:00,35.0,22.0,29.71,NNE,15,18.0,27.0,59,-99.99,,,-99.99,0.000000,,2013-04-09 09:10:00,
2013-04-09 02:52:00,35.0,22.0,29.71,NNE,15,18.0,27.0,59,-99.99,,,-99.99,0.000000,,2013-04-09 09:52:00,
2013-04-09 03:03:00,35.0,22.0,29.71,NNE,15,18.0,27.0,59,-99.99,,,-99.99,0.000000,,2013-04-09 10:03:00,
2013-04-09 03:10:00,34.0,22.0,29.72,NNE,18,18.0,26.0,62,-99.99,,,-99.99,0.000000,,2013-04-09 10:10:00,
2013-04-09 03:52:00,34.0,22.0,29.72,NNE,18,18.0,26.0,62,-99.99,,,-99.99,0.000000,,2013-04-09 10:52:00,
2013-04-09 04:02:00,34.0,22.0,29.72,NNE,18,18.0,26.0,62,-99.99,,,-99.99,0.000000,,2013-04-09 11:02:00,
2013-04-09 04:10:00,34.0,23.0,29.75,North,9,18.0,26.0,64,-99.99,,,-99.99,0.000000,,2013-04-09 11:10:00,
2013-04-09 04:52:00,34.0,23.0,29.75,North,9,18.0,26.0,64,-99.99,,,-99.99,0.000000,,2013-04-09 11:52:00,
2013-04-09 05:02:00,34.0,23.0,29.75,North,9,18.0,26.0,64,-99.99,,,-99.99,0.000000,,2013-04-09 12:02:00,
2013-04-09 05:10:00,33.0,22.0,29.76,North,9,18.0,27.0,65,-99.99,,,-99.99,0.000000,,2013-04-09 12:10:00,
2013-04-09 05:52:00,33.0,22.0,29.76,North,9,18.0,27.0,65,-99.99,,,-99.99,0.000000,,2013-04-09 12:52:00,
2013-04-09 06:02:00,33.0,22.0,29.76,North,9,18.0,27.0,65,-99.99,,,-99.99,0.000000,,2013-04-09 13:02:00,
2013-04-09 06:10:00,32.0,21.0,29.79,North,6,19.0,27.0,62,-99.99,,,-99.99,0.000000,,2013-04-09 13:10:00,
2013-04-09 06:52:00,32.0,21.0,29.79,North,6,19.0,27.0,62,-99.99,,,-99.99,0.000000,,2013-04-09 13:52:00,
2013-04-09 07:02:00,32.0,21.0,29.79,North,6,19.0,27.0,62,-99.99,,,-99.99,0.000000,,2013-04-09 14:02:00,
2013-04-09 07:10:00,32.0,21.0,29.82,North,4,16.0,22.0,62,-99.99,,,-99.99,10.000000,,2013-04-09 14:10:00,
2013-04-09 07:52:00,32.0,21.0,29.82,North,4,16.0,22.0,62,-99.99,,,-99.99,10.000000,,2013-04-09 14:52:00,
2013-04-09 08:02:00,32.0,21.0,29.82,North,4,16.0,22.0,62,-99.99,,,-99.99,10.000000,,2013-04-09 15:02:00,
2013-04-09 08:10:00,30.0,23.0,29.86,NNE,29,16.0,21.0,74,-99.99,,,-99.99,180.000000,,2013-04-09 15:10:00,
2013-04-09 09:03:00,30.0,23.0,29.86,NNE,29,16.0,21.0,74,-99.99,,,-99.99,180.000000,,2013-04-09 16:03:00,
2013-04-09 09:10:00,29.0,25.0,29.89,NNE,26,17.0,23.0,84,-99.99,,,-99.99,340.000000,,2013-04-09 16:10:00,
2013-04-09 09:52:00,29.0,25.0,29.89,NNE,26,17.0,23.0,84,-99.99,,,-99.99,340.000000,,2013-04-09 16:52:00,
2013-04-09 10:02:00,29.0,25.0,29.89,NNE,26,17.0,23.0,84,-99.99,,,-99.99,340.000000,,2013-04-09 17:02:00,
2013-04-09 10:10:00,34.0,25.0,29.91,North,354,19.0,28.0,69,-99.99,,,-99.99,410.000000,,2013-04-09 17:10:00,
2013-04-09 10:53:00,34.0,25.0,29.91,North,354,19.0,28.0,69,-99.99,,,-99.99,410.000000,,2013-04-09 17:53:00,
2013-04-09 11:02:00,34.0,25.0,29.91,North,354,19.0,28.0,69,-99.99,,,-99.99,410.000000,,2013-04-09 18:02:00,
2013-04-09 11:10:00,36.0,21.0,29.92,North,351,22.0,31.0,54,-99.99,,,-99.99,570.000000,,2013-04-09 18:10:00,
2013-04-09 11:52:00,36.0,21.0,29.92,North,351,22.0,31.0,54,-99.99,,,-99.99,570.000000,,2013-04-09 18:52:00,
2013-04-09 12:02:00,36.0,21.0,29.92,North,351,22.0,31.0,54,-99.99,,,-99.99,570.000000,,2013-04-09 19:02:00,
2013-04-09 12:10:00,36.0,19.0,29.93,North,2,22.0,31.0,49,-99.99,,,-99.99,380.000000,,2013-04-09 19:10:00,
2013-04-09 12:52:00,36.0,19.0,29.93,North,2,22.0,31.0,49,-99.99,,,-99.99,380.000000,,2013-04-09 19:52:00,
2013-04-09 13:02:00,36.0,19.0,29.93,North,2,22.0,31.0,49,-99.99,,,-99.99,380.000000,,2013-04-09 20:02:00,
2013-04-09 13:10:00,39.0,22.0,29.93,North,7,25.0,35.0,49,-99.99,,,-99.99,1040.000000,,2013-04-09 20:10:00,
2013-04-09 13:52:00,39.0,22.0,29.93,North,7,25.0,35.0,49,-99.99,,,-99.99,1040.000000,,2013-04-09 20:52:00,
2013-04-09 14:02:00,39.0,22.0,29.93,North,7,25.0,35.0,49,-99.99,,,-99.99,1040.000000,,2013-04-09 21:02:00,
2013-04-09 14:10:00,37.0,19.0,29.95,NNE,14,21.0,31.0,46,-99.99,,,-99.99,220.000000,,2013-04-09 21:10:00,
2013-04-09 14:52:00,37.0,19.0,29.95,NNE,14,21.0,31.0,46,-99.99,,,-99.99,220.000000,,2013-04-09 21:52:00,
2013-04-09 15:03:00,37.0,19.0,29.95,NNE,14,21.0,31.0,46,-99.99,,,-99.99,220.000000,,2013-04-09 22:03:00,
2013-04-09 15:10:00,35.0,22.0,29.98,NNE,26,19.0,27.0,59,-99.99,,,-99.99,160.000000,,2013-04-09 22:10:00,
2013-04-09 15:52:00,35.0,22.0,29.98,NNE,26,19.0,27.0,59,-99.99,,,-99.99,160.000000,,2013-04-09 22:52:00,
2013-04-09 16:02:00,35.0,22.0,29.98,NNE,26,19.0,27.0,59,-99.99,,,-99.99,160.000000,,2013-04-09 23:02:00,
2013-04-09 16:10:00,38.0,22.0,29.98,NNW,340,18.0,27.0,52,-99.99,,,-99.99,170.000000,,2013-04-09 23:10:00,
2013-04-09 17:03:00,38.0,22.0,29.98,NNW,340,18.0,27.0,52,-99.99,,,-99.99,170.000000,,2013-04-10 00:03:00,
2013-04-09 17:10:00,38.0,18.0,30.00,North,357,15.0,22.0,45,-99.99,,,-99.99,70.000000,,2013-04-10 00:10:00,
2013-04-09 17:52:00,38.0,18.0,30.00,North,357,15.0,22.0,45,-99.99,,,-99.99,70.000000,,2013-04-10 00:52:00,
2013-04-09 18:02:00,38.0,18.0,30.00,North,357,15.0,22.0,45,-99.99,,,-99.99,70.000000,,2013-04-10 01:02:00,
2013-04-09 18:10:00,37.0,19.0,30.01,North,9,16.0,22.0,48,-99.99,,,-99.99,30.000000,,2013-04-10 01:10:00,
2013-04-09 18:52:00,37.0,19.0,30.01,North,9,16.0,22.0,48,-99.99,,,-99.99,30.000000,,2013-04-10 01:52:00,
2013-04-09 19:02:00,37.0,19.0,30.01,North,9,16.0,22.0,48,-99.99,,,-99.99,30.000000,,2013-04-10 02:02:00,
2013-04-09 19:10:00,37.0,18.0,30.04,NNE,19,10.0,16.0,47,-99.99,,,-99.99,0.000000,,2013-04-10 02:10:00,
2013-04-09 19:52:00,37.0,18.0,30.04,NNE,19,10.0,16.0,47,-99.99,,,-99.99,0.000000,,2013-04-10 02:52:00,
2013-04-09 20:02:00,37.0,18.0,30.04,NNE,19,10.0,16.0,47,-99.99,,,-99.99,0.000000,,2013-04-10 03:02:00,
2013-04-09 20:10:00,35.0,19.0,30.07,NW,310,6.0,7.0,52,-99.99,,,-99.99,0.000000,,2013-04-10 03:10:00,
2013-04-09 20:52:00,35.0,19.0,30.07,NW,310,6.0,7.0,52,-99.99,,,-99.99,0.000000,,2013-04-10 03:52:00,
2013-04-09 21:03:00,35.0,19.0,30.07,NW,310,6.0,7.0,52,-99.99,,,-99.99,0.000000,,2013-04-10 04:03:00,
2013-04-09 21:10:00,34.0,18.0,30.09,NNW,332,5.0,7.0,53,-99.99,,,-99.99,0.000000,,2013-04-10 04:10:00,
2013-04-09 21:52:00,34.0,18.0,30.09,NNW,332,5.0,7.0,53,-99.99,,,-99.99,0.000000,,2013-04-10 04:52:00,
2013-04-09 22:02:00,34.0,18.0,30.09,NNW,332,5.0,7.0,53,-99.99,,,-99.99,0.000000,,2013-04-10 05:02:00,
2013-04-09 23:10:00,35.0,18.0,30.11,NNW,331,6.0,10.0,50,-99.99,,,-99.99,0.000000,,2013-04-10 06:10:00,
2013-04-09 23:52:00,35.0,18.0,30.11,NNW,331,6.0,10.0,50,-99.99,,,-99.99,0.000000,,2013-04-10 06:52:00,